sensor_id;sensor_type;location;lat;lon;timestamp;temperature;humidity
25342;DHT22;13298;48.792;9.154;2023-09-19T00:00:19;16.50;99.90
25342;DHT22;13298;48.792;9.154;2023-09-19T00:02:51;16.50;99.90
25342;DHT22;13298;48.792;9.154;2023-09-19T00:05:18;16.50;99.90
25342;DHT22;13298;48.792;9.154;2023-09-19T00:07:44;16.50;99.90
25342;DHT22;13298;48.792;9.154;2023-09-19T00:10:10;16.40;99.90
25342;DHT22;13298;48.792;9.154;2023-09-19T00:12:36;16.40;99.90
25342;DHT22;13298;48.792;9.154;2023-09-19T00:15:01;16.40;99.90
25342;DHT22;13298;48.792;9.154;2023-09-19T00:17:30;16.40;99.90
25342;DHT22;13298;48.792;9.154;2023-09-19T00:19:57;16.40;99.90
25342;DHT22;13298;48.792;9.154;2023-09-19T00:22:23;16.50;99.90
25342;DHT22;13298;48.792;9.154;2023-09-19T00:24:51;16.50;99.90
25342;DHT22;13298;48.792;9.154;2023-09-19T00:27:18;16.50;99.90
25342;DHT22;13298;48.792;9.154;2023-09-19T00:29:44;16.50;99.90
25342;DHT22;13298;48.792;9.154;2023-09-19T00:32:09;16.50;99.90
25342;DHT22;13298;48.792;9.154;2023-09-19T00:34:35;16.50;99.90
25342;DHT22;13298;48.792;9.154;2023-09-19T00:37:01;16.50;99.90
25342;DHT22;13298;48.792;9.154;2023-09-19T00:39:26;16.50;99.90
25342;DHT22;13298;48.792;9.154;2023-09-19T00:41:57;16.40;99.90
25342;DHT22;13298;48.792;9.154;2023-09-19T00:44:22;16.40;99.90
25342;DHT22;13298;48.792;9.154;2023-09-19T00:46:49;16.40;99.90
25342;DHT22;13298;48.792;9.154;2023-09-19T00:49:16;16.40;99.90
25342;DHT22;13298;48.792;9.154;2023-09-19T00:51:42;16.40;99.90
25342;DHT22;13298;48.792;9.154;2023-09-19T00:54:12;16.40;99.90
25342;DHT22;13298;48.792;9.154;2023-09-19T00:56:44;16.30;99.90
25342;DHT22;13298;48.792;9.154;2023-09-19T00:59:10;16.30;99.90
25342;DHT22;13298;48.792;9.154;2023-09-19T01:01:37;16.30;99.90
25342;DHT22;13298;48.792;9.154;2023-09-19T01:04:05;16.30;99.90
25342;DHT22;13298;48.792;9.154;2023-09-19T01:06:32;16.30;99.90
25342;DHT22;13298;48.792;9.154;2023-09-19T01:08:57;16.30;99.90
25342;DHT22;13298;48.792;9.154;2023-09-19T01:11:35;16.30;99.90
25342;DHT22;13298;48.792;9.154;2023-09-19T01:14:35;16.20;99.90
25342;DHT22;13298;48.792;9.154;2023-09-19T01:17:14;16.20;99.90
25342;DHT22;13298;48.792;9.154;2023-09-19T01:20:06;16.20;99.90
25342;DHT22;13298;48.792;9.154;2023-09-19T01:29:23;16.20;99.90
25342;DHT22;13298;48.792;9.154;2023-09-19T01:32:23;16.20;99.90
25342;DHT22;13298;48.792;9.154;2023-09-19T01:34:56;16.20;99.90
25342;DHT22;13298;48.792;9.154;2023-09-19T01:37:28;16.20;99.90
25342;DHT22;13298;48.792;9.154;2023-09-19T01:40:15;16.20;99.90
25342;DHT22;13298;48.792;9.154;2023-09-19T01:42:52;16.10;99.90
25342;DHT22;13298;48.792;9.154;2023-09-19T01:48:39;16.10;99.90
25342;DHT22;13298;48.792;9.154;2023-09-19T01:51:10;16.10;99.90
25342;DHT22;13298;48.792;9.154;2023-09-19T01:56:36;16.10;99.90
25342;DHT22;13298;48.792;9.154;2023-09-19T01:59:26;16.00;99.90
25342;DHT22;13298;48.792;9.154;2023-09-19T02:01:57;16.00;99.90
25342;DHT22;13298;48.792;9.154;2023-09-19T02:04:23;16.00;99.90
25342;DHT22;13298;48.792;9.154;2023-09-19T02:06:49;16.00;99.90
25342;DHT22;13298;48.792;9.154;2023-09-19T02:09:15;16.00;99.90
25342;DHT22;13298;48.792;9.154;2023-09-19T02:11:40;15.90;99.90
25342;DHT22;13298;48.792;9.154;2023-09-19T02:14:07;15.90;99.90
25342;DHT22;13298;48.792;9.154;2023-09-19T02:16:37;15.80;99.90
25342;DHT22;13298;48.792;9.154;2023-09-19T02:19:02;15.70;99.90
25342;DHT22;13298;48.792;9.154;2023-09-19T02:21:31;15.60;99.90
25342;DHT22;13298;48.792;9.154;2023-09-19T02:23:57;15.60;99.90
25342;DHT22;13298;48.792;9.154;2023-09-19T02:26:24;15.50;99.90
25342;DHT22;13298;48.792;9.154;2023-09-19T02:28:50;15.50;99.90
25342;DHT22;13298;48.792;9.154;2023-09-19T02:31:15;15.40;99.90
25342;DHT22;13298;48.792;9.154;2023-09-19T02:33:42;15.40;99.90
25342;DHT22;13298;48.792;9.154;2023-09-19T02:36:08;15.40;99.90
25342;DHT22;13298;48.792;9.154;2023-09-19T02:38:35;15.30;99.90
25342;DHT22;13298;48.792;9.154;2023-09-19T02:41:00;15.20;99.90
25342;DHT22;13298;48.792;9.154;2023-09-19T02:43:27;15.20;99.90
25342;DHT22;13298;48.792;9.154;2023-09-19T02:45:53;15.20;99.90
25342;DHT22;13298;48.792;9.154;2023-09-19T02:48:19;15.10;99.90
25342;DHT22;13298;48.792;9.154;2023-09-19T02:50:46;15.10;99.90
25342;DHT22;13298;48.792;9.154;2023-09-19T02:53:14;15.10;99.90
25342;DHT22;13298;48.792;9.154;2023-09-19T02:55:40;15.20;99.90
25342;DHT22;13298;48.792;9.154;2023-09-19T02:58:07;15.20;99.90
25342;DHT22;13298;48.792;9.154;2023-09-19T03:00:39;15.20;99.90
25342;DHT22;13298;48.792;9.154;2023-09-19T03:03:07;15.30;99.90
25342;DHT22;13298;48.792;9.154;2023-09-19T03:05:34;15.40;99.90
25342;DHT22;13298;48.792;9.154;2023-09-19T03:08:00;15.50;99.90
25342;DHT22;13298;48.792;9.154;2023-09-19T03:10:27;15.50;99.90
25342;DHT22;13298;48.792;9.154;2023-09-19T03:12:53;15.60;99.90
25342;DHT22;13298;48.792;9.154;2023-09-19T03:15:19;15.70;99.90
25342;DHT22;13298;48.792;9.154;2023-09-19T03:17:45;15.70;99.90
25342;DHT22;13298;48.792;9.154;2023-09-19T03:20:13;15.80;99.90
25342;DHT22;13298;48.792;9.154;2023-09-19T03:22:41;15.80;99.90
25342;DHT22;13298;48.792;9.154;2023-09-19T03:25:07;15.80;99.90
25342;DHT22;13298;48.792;9.154;2023-09-19T03:27:36;15.80;99.90
25342;DHT22;13298;48.792;9.154;2023-09-19T03:30:06;15.90;99.90
25342;DHT22;13298;48.792;9.154;2023-09-19T03:32:36;15.90;99.90
25342;DHT22;13298;48.792;9.154;2023-09-19T03:35:04;15.90;99.90
25342;DHT22;13298;48.792;9.154;2023-09-19T03:37:31;15.90;99.90
25342;DHT22;13298;48.792;9.154;2023-09-19T03:39:57;16.00;99.90
25342;DHT22;13298;48.792;9.154;2023-09-19T03:42:23;16.00;99.90
25342;DHT22;13298;48.792;9.154;2023-09-19T03:44:52;16.00;99.90
25342;DHT22;13298;48.792;9.154;2023-09-19T03:47:18;16.00;99.90
25342;DHT22;13298;48.792;9.154;2023-09-19T03:49:47;16.00;99.90
25342;DHT22;13298;48.792;9.154;2023-09-19T03:52:12;16.00;99.90
25342;DHT22;13298;48.792;9.154;2023-09-19T03:54:38;16.00;99.90
25342;DHT22;13298;48.792;9.154;2023-09-19T03:57:06;16.00;99.90
25342;DHT22;13298;48.792;9.154;2023-09-19T03:59:32;16.00;99.90
25342;DHT22;13298;48.792;9.154;2023-09-19T04:01:58;16.10;99.90
25342;DHT22;13298;48.792;9.154;2023-09-19T04:04:24;16.10;99.90
25342;DHT22;13298;48.792;9.154;2023-09-19T04:06:51;16.10;99.90
25342;DHT22;13298;48.792;9.154;2023-09-19T04:09:16;16.10;99.90
25342;DHT22;13298;48.792;9.154;2023-09-19T04:11:42;16.10;99.90
25342;DHT22;13298;48.792;9.154;2023-09-19T04:14:08;16.10;99.90
25342;DHT22;13298;48.792;9.154;2023-09-19T04:16:34;16.10;99.90
25342;DHT22;13298;48.792;9.154;2023-09-19T04:18:59;16.00;99.90
25342;DHT22;13298;48.792;9.154;2023-09-19T04:21:25;16.00;99.90
25342;DHT22;13298;48.792;9.154;2023-09-19T04:23:52;16.00;99.90
25342;DHT22;13298;48.792;9.154;2023-09-19T04:26:17;16.00;99.90
25342;DHT22;13298;48.792;9.154;2023-09-19T04:28:43;15.90;99.90
25342;DHT22;13298;48.792;9.154;2023-09-19T04:31:09;16.00;99.90
25342;DHT22;13298;48.792;9.154;2023-09-19T04:33:37;16.00;99.90
25342;DHT22;13298;48.792;9.154;2023-09-19T04:36:03;16.00;99.90
25342;DHT22;13298;48.792;9.154;2023-09-19T04:38:30;16.00;99.90
25342;DHT22;13298;48.792;9.154;2023-09-19T04:40:59;16.00;99.90
25342;DHT22;13298;48.792;9.154;2023-09-19T04:43:26;16.00;99.90
25342;DHT22;13298;48.792;9.154;2023-09-19T04:45:52;16.00;99.90
25342;DHT22;13298;48.792;9.154;2023-09-19T04:48:22;16.00;99.90
25342;DHT22;13298;48.792;9.154;2023-09-19T04:50:49;16.00;99.90
25342;DHT22;13298;48.792;9.154;2023-09-19T04:53:17;16.00;99.90
25342;DHT22;13298;48.792;9.154;2023-09-19T04:55:44;16.00;99.90
25342;DHT22;13298;48.792;9.154;2023-09-19T04:58:09;16.00;99.90
25342;DHT22;13298;48.792;9.154;2023-09-19T05:00:36;16.00;99.90
25342;DHT22;13298;48.792;9.154;2023-09-19T05:03:01;16.00;99.90
25342;DHT22;13298;48.792;9.154;2023-09-19T05:05:29;16.00;99.90
25342;DHT22;13298;48.792;9.154;2023-09-19T05:07:55;15.90;99.90
25342;DHT22;13298;48.792;9.154;2023-09-19T05:10:21;15.90;99.90
25342;DHT22;13298;48.792;9.154;2023-09-19T05:12:47;15.80;99.90
25342;DHT22;13298;48.792;9.154;2023-09-19T05:15:14;15.70;99.90
25342;DHT22;13298;48.792;9.154;2023-09-19T05:17:48;15.70;99.90
25342;DHT22;13298;48.792;9.154;2023-09-19T05:20:20;15.70;99.90
25342;DHT22;13298;48.792;9.154;2023-09-19T05:23:00;15.60;99.90
25342;DHT22;13298;48.792;9.154;2023-09-19T05:25:35;15.60;99.90
25342;DHT22;13298;48.792;9.154;2023-09-19T05:28:09;15.60;99.90
25342;DHT22;13298;48.792;9.154;2023-09-19T05:30:37;15.70;99.90
25342;DHT22;13298;48.792;9.154;2023-09-19T05:33:08;15.70;99.90
25342;DHT22;13298;48.792;9.154;2023-09-19T05:35:34;15.70;99.90
25342;DHT22;13298;48.792;9.154;2023-09-19T05:38:03;15.70;99.90
25342;DHT22;13298;48.792;9.154;2023-09-19T05:40:30;15.70;99.90
25342;DHT22;13298;48.792;9.154;2023-09-19T05:42:56;15.60;99.90
25342;DHT22;13298;48.792;9.154;2023-09-19T05:45:22;15.60;99.90
25342;DHT22;13298;48.792;9.154;2023-09-19T05:47:49;15.40;99.90
25342;DHT22;13298;48.792;9.154;2023-09-19T05:50:16;15.40;99.90
25342;DHT22;13298;48.792;9.154;2023-09-19T05:52:50;15.30;99.90
25342;DHT22;13298;48.792;9.154;2023-09-19T05:55:17;15.20;99.90
25342;DHT22;13298;48.792;9.154;2023-09-19T05:57:43;15.20;99.90
25342;DHT22;13298;48.792;9.154;2023-09-19T06:00:15;15.20;99.90
25342;DHT22;13298;48.792;9.154;2023-09-19T06:02:43;15.20;99.90
25342;DHT22;13298;48.792;9.154;2023-09-19T06:05:10;15.20;99.90
25342;DHT22;13298;48.792;9.154;2023-09-19T06:07:36;15.20;99.90
25342;DHT22;13298;48.792;9.154;2023-09-19T06:10:04;15.20;99.90
25342;DHT22;13298;48.792;9.154;2023-09-19T06:12:37;15.20;99.90
25342;DHT22;13298;48.792;9.154;2023-09-19T06:15:04;15.10;99.90
25342;DHT22;13298;48.792;9.154;2023-09-19T06:17:31;15.10;99.90
25342;DHT22;13298;48.792;9.154;2023-09-19T06:19:57;15.10;99.90
25342;DHT22;13298;48.792;9.154;2023-09-19T06:22:23;15.00;99.90
25342;DHT22;13298;48.792;9.154;2023-09-19T06:24:50;14.90;99.90
25342;DHT22;13298;48.792;9.154;2023-09-19T06:27:15;14.90;99.90
25342;DHT22;13298;48.792;9.154;2023-09-19T06:29:41;14.90;99.90
25342;DHT22;13298;48.792;9.154;2023-09-19T06:32:10;14.90;99.90
25342;DHT22;13298;48.792;9.154;2023-09-19T06:34:36;14.90;99.90
25342;DHT22;13298;48.792;9.154;2023-09-19T06:37:04;15.00;99.90
25342;DHT22;13298;48.792;9.154;2023-09-19T06:39:31;15.10;99.90
25342;DHT22;13298;48.792;9.154;2023-09-19T06:41:57;15.10;99.90
25342;DHT22;13298;48.792;9.154;2023-09-19T06:44:23;15.20;99.90
25342;DHT22;13298;48.792;9.154;2023-09-19T06:46:50;15.10;99.90
25342;DHT22;13298;48.792;9.154;2023-09-19T06:49:17;15.10;99.90
25342;DHT22;13298;48.792;9.154;2023-09-19T06:51:44;15.20;99.90
25342;DHT22;13298;48.792;9.154;2023-09-19T06:54:10;15.10;99.90
25342;DHT22;13298;48.792;9.154;2023-09-19T06:56:36;15.20;99.90
25342;DHT22;13298;48.792;9.154;2023-09-19T06:59:02;15.30;99.90
25342;DHT22;13298;48.792;9.154;2023-09-19T07:01:28;15.40;99.90
25342;DHT22;13298;48.792;9.154;2023-09-19T07:03:54;15.50;99.90
25342;DHT22;13298;48.792;9.154;2023-09-19T07:06:20;15.60;99.90
25342;DHT22;13298;48.792;9.154;2023-09-19T07:08:46;15.60;99.90
25342;DHT22;13298;48.792;9.154;2023-09-19T07:11:12;15.70;99.90
25342;DHT22;13298;48.792;9.154;2023-09-19T07:13:38;15.70;99.90
25342;DHT22;13298;48.792;9.154;2023-09-19T07:16:04;15.80;99.90
25342;DHT22;13298;48.792;9.154;2023-09-19T07:18:30;15.80;99.90
25342;DHT22;13298;48.792;9.154;2023-09-19T07:20:57;15.80;99.90
25342;DHT22;13298;48.792;9.154;2023-09-19T07:23:30;15.90;99.90
25342;DHT22;13298;48.792;9.154;2023-09-19T07:26:02;15.90;99.90
25342;DHT22;13298;48.792;9.154;2023-09-19T07:28:30;15.90;99.90
25342;DHT22;13298;48.792;9.154;2023-09-19T07:30:56;16.00;99.90
25342;DHT22;13298;48.792;9.154;2023-09-19T07:33:22;16.00;99.90
25342;DHT22;13298;48.792;9.154;2023-09-19T07:35:52;16.00;99.90
25342;DHT22;13298;48.792;9.154;2023-09-19T07:38:18;16.10;99.90
25342;DHT22;13298;48.792;9.154;2023-09-19T07:40:43;16.10;99.90
25342;DHT22;13298;48.792;9.154;2023-09-19T07:43:09;16.10;99.90
25342;DHT22;13298;48.792;9.154;2023-09-19T07:45:35;16.10;99.90
25342;DHT22;13298;48.792;9.154;2023-09-19T07:48:01;16.20;99.90
25342;DHT22;13298;48.792;9.154;2023-09-19T07:50:30;16.20;99.90
25342;DHT22;13298;48.792;9.154;2023-09-19T07:52:55;16.20;99.90
25342;DHT22;13298;48.792;9.154;2023-09-19T07:55:22;16.20;99.90
25342;DHT22;13298;48.792;9.154;2023-09-19T07:57:54;16.20;99.90
25342;DHT22;13298;48.792;9.154;2023-09-19T08:00:20;16.20;99.90
25342;DHT22;13298;48.792;9.154;2023-09-19T08:02:46;16.30;99.90
25342;DHT22;13298;48.792;9.154;2023-09-19T08:05:13;16.30;99.90
25342;DHT22;13298;48.792;9.154;2023-09-19T08:07:42;16.40;99.90
25342;DHT22;13298;48.792;9.154;2023-09-19T08:10:10;16.50;99.90
25342;DHT22;13298;48.792;9.154;2023-09-19T08:12:41;16.60;99.90
25342;DHT22;13298;48.792;9.154;2023-09-19T08:17:39;16.80;99.90
25342;DHT22;13298;48.792;9.154;2023-09-19T08:20:06;16.90;99.90
25342;DHT22;13298;48.792;9.154;2023-09-19T08:22:32;17.00;99.90
25342;DHT22;13298;48.792;9.154;2023-09-19T08:24:58;17.10;99.90
25342;DHT22;13298;48.792;9.154;2023-09-19T08:27:24;17.20;99.90
25342;DHT22;13298;48.792;9.154;2023-09-19T08:29:53;17.30;99.90
25342;DHT22;13298;48.792;9.154;2023-09-19T08:32:19;17.40;99.90
25342;DHT22;13298;48.792;9.154;2023-09-19T08:34:50;17.40;99.90
25342;DHT22;13298;48.792;9.154;2023-09-19T08:37:15;17.50;99.90
25342;DHT22;13298;48.792;9.154;2023-09-19T08:39:43;17.60;99.90
25342;DHT22;13298;48.792;9.154;2023-09-19T08:42:10;17.80;99.90
25342;DHT22;13298;48.792;9.154;2023-09-19T08:44:37;17.80;99.90
25342;DHT22;13298;48.792;9.154;2023-09-19T08:47:15;17.90;99.90
25342;DHT22;13298;48.792;9.154;2023-09-19T08:49:56;17.90;99.90
25342;DHT22;13298;48.792;9.154;2023-09-19T08:52:30;17.90;99.90
25342;DHT22;13298;48.792;9.154;2023-09-19T08:55:02;17.90;99.90
25342;DHT22;13298;48.792;9.154;2023-09-19T08:57:36;17.80;99.90
25342;DHT22;13298;48.792;9.154;2023-09-19T09:00:07;17.80;99.90
25342;DHT22;13298;48.792;9.154;2023-09-19T09:02:38;17.90;99.90
25342;DHT22;13298;48.792;9.154;2023-09-19T09:05:07;17.90;99.90
25342;DHT22;13298;48.792;9.154;2023-09-19T09:07:35;17.90;99.90
25342;DHT22;13298;48.792;9.154;2023-09-19T09:10:02;18.00;99.90
25342;DHT22;13298;48.792;9.154;2023-09-19T09:12:29;18.10;99.90
25342;DHT22;13298;48.792;9.154;2023-09-19T09:14:55;18.20;99.90
25342;DHT22;13298;48.792;9.154;2023-09-19T09:17:25;18.30;99.90
25342;DHT22;13298;48.792;9.154;2023-09-19T09:19:54;18.50;99.90
25342;DHT22;13298;48.792;9.154;2023-09-19T09:22:19;18.70;99.90
25342;DHT22;13298;48.792;9.154;2023-09-19T09:24:56;19.00;99.90
25342;DHT22;13298;48.792;9.154;2023-09-19T09:27:30;19.30;99.90
25342;DHT22;13298;48.792;9.154;2023-09-19T09:29:58;19.30;99.90
25342;DHT22;13298;48.792;9.154;2023-09-19T09:32:31;19.60;99.90
25342;DHT22;13298;48.792;9.154;2023-09-19T09:35:03;19.60;99.90
25342;DHT22;13298;48.792;9.154;2023-09-19T09:37:35;19.50;99.90
25342;DHT22;13298;48.792;9.154;2023-09-19T09:40:04;19.30;99.90
25342;DHT22;13298;48.792;9.154;2023-09-19T09:42:45;19.30;99.90
25342;DHT22;13298;48.792;9.154;2023-09-19T09:45:22;19.40;99.90
25342;DHT22;13298;48.792;9.154;2023-09-19T09:48:01;19.50;99.90
25342;DHT22;13298;48.792;9.154;2023-09-19T09:50:46;19.50;99.90
25342;DHT22;13298;48.792;9.154;2023-09-19T09:53:29;19.40;99.90
25342;DHT22;13298;48.792;9.154;2023-09-19T09:56:00;19.60;99.90
25342;DHT22;13298;48.792;9.154;2023-09-19T09:58:50;19.90;99.90
25342;DHT22;13298;48.792;9.154;2023-09-19T10:01:21;20.20;99.90
25342;DHT22;13298;48.792;9.154;2023-09-19T10:03:57;20.40;99.90
25342;DHT22;13298;48.792;9.154;2023-09-19T10:06:23;20.50;99.90
25342;DHT22;13298;48.792;9.154;2023-09-19T10:11:44;20.50;99.90
25342;DHT22;13298;48.792;9.154;2023-09-19T10:14:12;20.40;99.90
25342;DHT22;13298;48.792;9.154;2023-09-19T10:16:46;20.30;99.90
25342;DHT22;13298;48.792;9.154;2023-09-19T10:19:20;20.30;99.90
25342;DHT22;13298;48.792;9.154;2023-09-19T10:21:55;20.10;99.90
25342;DHT22;13298;48.792;9.154;2023-09-19T10:24:22;19.80;99.90
25342;DHT22;13298;48.792;9.154;2023-09-19T10:26:50;19.60;99.90
25342;DHT22;13298;48.792;9.154;2023-09-19T10:29:17;19.40;99.90
25342;DHT22;13298;48.792;9.154;2023-09-19T10:31:47;19.30;99.90
25342;DHT22;13298;48.792;9.154;2023-09-19T10:34:15;19.20;99.90
25342;DHT22;13298;48.792;9.154;2023-09-19T10:36:44;19.20;99.90
25342;DHT22;13298;48.792;9.154;2023-09-19T10:39:14;19.20;99.90
25342;DHT22;13298;48.792;9.154;2023-09-19T10:41:55;19.30;99.90
25342;DHT22;13298;48.792;9.154;2023-09-19T10:44:24;19.30;99.90
25342;DHT22;13298;48.792;9.154;2023-09-19T10:46:52;19.30;99.90
25342;DHT22;13298;48.792;9.154;2023-09-19T10:49:20;19.30;99.90
25342;DHT22;13298;48.792;9.154;2023-09-19T10:51:47;19.40;99.90
25342;DHT22;13298;48.792;9.154;2023-09-19T10:54:18;19.50;99.90
25342;DHT22;13298;48.792;9.154;2023-09-19T10:56:48;19.60;99.90
25342;DHT22;13298;48.792;9.154;2023-09-19T10:59:20;19.70;99.90
25342;DHT22;13298;48.792;9.154;2023-09-19T11:01:51;19.70;99.90
25342;DHT22;13298;48.792;9.154;2023-09-19T11:04:32;19.60;99.90
25342;DHT22;13298;48.792;9.154;2023-09-19T11:09:51;19.60;99.90
25342;DHT22;13298;48.792;9.154;2023-09-19T11:14:57;19.50;99.90
25342;DHT22;13298;48.792;9.154;2023-09-19T11:25:42;19.70;99.90
25342;DHT22;13298;48.792;9.154;2023-09-19T11:30:43;19.80;99.90
25342;DHT22;13298;48.792;9.154;2023-09-19T11:33:28;19.70;99.90
25342;DHT22;13298;48.792;9.154;2023-09-19T11:36:16;19.80;99.90
25342;DHT22;13298;48.792;9.154;2023-09-19T11:41:36;19.90;99.90
25342;DHT22;13298;48.792;9.154;2023-09-19T11:49:26;20.30;99.90
25342;DHT22;13298;48.792;9.154;2023-09-19T11:51:58;20.50;99.90
25342;DHT22;13298;48.792;9.154;2023-09-19T11:54:31;20.70;99.90
25342;DHT22;13298;48.792;9.154;2023-09-19T11:56:58;20.90;99.90
25342;DHT22;13298;48.792;9.154;2023-09-19T11:59:26;20.90;99.90
25342;DHT22;13298;48.792;9.154;2023-09-19T12:02:06;21.00;99.90
25342;DHT22;13298;48.792;9.154;2023-09-19T12:04:40;21.00;99.90
25342;DHT22;13298;48.792;9.154;2023-09-19T12:07:13;21.00;99.90
25342;DHT22;13298;48.792;9.154;2023-09-19T12:12:24;20.80;99.90
25342;DHT22;13298;48.792;9.154;2023-09-19T12:14:53;20.70;99.90
25342;DHT22;13298;48.792;9.154;2023-09-19T12:17:20;20.60;99.90
25342;DHT22;13298;48.792;9.154;2023-09-19T12:19:56;20.70;99.90
25342;DHT22;13298;48.792;9.154;2023-09-19T12:22:22;20.70;99.90
25342;DHT22;13298;48.792;9.154;2023-09-19T12:24:48;20.70;99.90
25342;DHT22;13298;48.792;9.154;2023-09-19T12:27:16;20.70;99.90
25342;DHT22;13298;48.792;9.154;2023-09-19T12:29:47;20.80;99.90
25342;DHT22;13298;48.792;9.154;2023-09-19T12:32:36;20.70;99.90
25342;DHT22;13298;48.792;9.154;2023-09-19T12:35:06;20.70;99.90
25342;DHT22;13298;48.792;9.154;2023-09-19T12:37:44;20.70;99.90
25342;DHT22;13298;48.792;9.154;2023-09-19T12:40:18;20.60;99.90
25342;DHT22;13298;48.792;9.154;2023-09-19T12:42:52;20.60;99.90
25342;DHT22;13298;48.792;9.154;2023-09-19T12:45:20;20.60;99.90
25342;DHT22;13298;48.792;9.154;2023-09-19T12:48:18;20.60;99.90
25342;DHT22;13298;48.792;9.154;2023-09-19T12:51:10;20.80;99.90
25342;DHT22;13298;48.792;9.154;2023-09-19T12:53:42;21.10;99.90
25342;DHT22;13298;48.792;9.154;2023-09-19T12:56:13;21.40;99.90
25342;DHT22;13298;48.792;9.154;2023-09-19T12:58:58;21.60;99.90
25342;DHT22;13298;48.792;9.154;2023-09-19T13:01:29;21.90;99.90
25342;DHT22;13298;48.792;9.154;2023-09-19T13:04:30;22.10;99.60
25342;DHT22;13298;48.792;9.154;2023-09-19T13:06:58;22.30;99.90
25342;DHT22;13298;48.792;9.154;2023-09-19T13:09:28;22.40;99.20
25342;DHT22;13298;48.792;9.154;2023-09-19T13:11:59;22.60;99.90
25342;DHT22;13298;48.792;9.154;2023-09-19T13:14:28;22.70;99.30
25342;DHT22;13298;48.792;9.154;2023-09-19T13:17:04;22.50;98.00
25342;DHT22;13298;48.792;9.154;2023-09-19T13:25:13;22.10;99.70
25342;DHT22;13298;48.792;9.154;2023-09-19T13:27:44;22.10;99.10
25342;DHT22;13298;48.792;9.154;2023-09-19T13:30:14;22.20;99.50
25342;DHT22;13298;48.792;9.154;2023-09-19T13:32:41;22.10;99.10
25342;DHT22;13298;48.792;9.154;2023-09-19T13:35:08;21.90;99.90
25342;DHT22;13298;48.792;9.154;2023-09-19T13:37:38;22.00;98.70
25342;DHT22;13298;48.792;9.154;2023-09-19T13:40:10;22.10;99.30
25342;DHT22;13298;48.792;9.154;2023-09-19T13:42:37;22.10;98.90
25342;DHT22;13298;48.792;9.154;2023-09-19T13:45:03;22.00;99.30
25342;DHT22;13298;48.792;9.154;2023-09-19T13:47:33;22.10;99.70
25342;DHT22;13298;48.792;9.154;2023-09-19T13:50:02;22.00;98.80
25342;DHT22;13298;48.792;9.154;2023-09-19T13:52:30;21.90;98.70
25342;DHT22;13298;48.792;9.154;2023-09-19T13:54:56;21.80;99.90
25342;DHT22;13298;48.792;9.154;2023-09-19T13:57:26;21.60;99.90
25342;DHT22;13298;48.792;9.154;2023-09-19T13:59:52;21.60;99.90
25342;DHT22;13298;48.792;9.154;2023-09-19T14:02:22;21.50;99.60
25342;DHT22;13298;48.792;9.154;2023-09-19T14:04:54;21.50;99.90
25342;DHT22;13298;48.792;9.154;2023-09-19T14:07:20;21.50;99.90
25342;DHT22;13298;48.792;9.154;2023-09-19T14:09:46;21.60;99.90
25342;DHT22;13298;48.792;9.154;2023-09-19T14:12:13;21.60;99.90
25342;DHT22;13298;48.792;9.154;2023-09-19T14:14:39;21.50;99.90
25342;DHT22;13298;48.792;9.154;2023-09-19T14:17:06;21.50;99.90
25342;DHT22;13298;48.792;9.154;2023-09-19T14:19:32;21.70;99.90
25342;DHT22;13298;48.792;9.154;2023-09-19T14:21:58;21.90;99.00
25342;DHT22;13298;48.792;9.154;2023-09-19T14:24:25;21.90;99.80
25342;DHT22;13298;48.792;9.154;2023-09-19T14:26:51;21.90;99.30
25342;DHT22;13298;48.792;9.154;2023-09-19T14:29:17;21.80;98.80
25342;DHT22;13298;48.792;9.154;2023-09-19T14:31:43;21.60;98.30
25342;DHT22;13298;48.792;9.154;2023-09-19T14:34:09;21.50;98.80
25342;DHT22;13298;48.792;9.154;2023-09-19T14:36:36;21.40;99.90
25342;DHT22;13298;48.792;9.154;2023-09-19T14:39:02;21.30;99.50
25342;DHT22;13298;48.792;9.154;2023-09-19T14:41:28;21.20;99.90
25342;DHT22;13298;48.792;9.154;2023-09-19T14:43:54;21.20;99.90
25342;DHT22;13298;48.792;9.154;2023-09-19T14:46:23;21.20;99.90
25342;DHT22;13298;48.792;9.154;2023-09-19T14:48:51;21.30;99.90
25342;DHT22;13298;48.792;9.154;2023-09-19T14:51:17;21.40;99.90
25342;DHT22;13298;48.792;9.154;2023-09-19T14:53:44;21.50;99.90
25342;DHT22;13298;48.792;9.154;2023-09-19T14:56:11;21.50;99.90
25342;DHT22;13298;48.792;9.154;2023-09-19T14:58:38;21.70;99.50
25342;DHT22;13298;48.792;9.154;2023-09-19T15:01:07;21.80;99.50
25342;DHT22;13298;48.792;9.154;2023-09-19T15:03:34;21.70;98.70
25342;DHT22;13298;48.792;9.154;2023-09-19T15:06:04;21.70;97.20
25342;DHT22;13298;48.792;9.154;2023-09-19T15:08:33;21.60;97.40
25342;DHT22;13298;48.792;9.154;2023-09-19T15:11:04;21.40;97.00
25342;DHT22;13298;48.792;9.154;2023-09-19T15:13:31;21.30;98.00
25342;DHT22;13298;48.792;9.154;2023-09-19T15:16:01;21.30;97.80
25342;DHT22;13298;48.792;9.154;2023-09-19T15:18:28;21.20;98.90
25342;DHT22;13298;48.792;9.154;2023-09-19T15:21:02;21.20;99.00
25342;DHT22;13298;48.792;9.154;2023-09-19T15:23:29;21.20;98.40
25342;DHT22;13298;48.792;9.154;2023-09-19T15:26:00;21.10;97.30
25342;DHT22;13298;48.792;9.154;2023-09-19T15:28:27;21.10;99.00
25342;DHT22;13298;48.792;9.154;2023-09-19T15:31:01;21.00;98.00
25342;DHT22;13298;48.792;9.154;2023-09-19T15:33:29;21.10;99.00
25342;DHT22;13298;48.792;9.154;2023-09-19T15:36:12;21.10;98.00
25342;DHT22;13298;48.792;9.154;2023-09-19T15:41:35;21.10;98.70
25342;DHT22;13298;48.792;9.154;2023-09-19T15:44:05;21.10;97.80
25342;DHT22;13298;48.792;9.154;2023-09-19T15:46:36;21.00;97.60
25342;DHT22;13298;48.792;9.154;2023-09-19T15:49:03;21.00;98.20
25342;DHT22;13298;48.792;9.154;2023-09-19T15:51:28;20.90;98.80
25342;DHT22;13298;48.792;9.154;2023-09-19T15:53:55;20.80;99.10
25342;DHT22;13298;48.792;9.154;2023-09-19T15:56:23;20.70;98.80
25342;DHT22;13298;48.792;9.154;2023-09-19T15:58:51;20.70;98.70
25342;DHT22;13298;48.792;9.154;2023-09-19T16:01:19;20.80;98.60
25342;DHT22;13298;48.792;9.154;2023-09-19T16:03:47;20.80;99.20
25342;DHT22;13298;48.792;9.154;2023-09-19T16:06:18;20.80;99.10
25342;DHT22;13298;48.792;9.154;2023-09-19T16:08:47;20.90;98.70
25342;DHT22;13298;48.792;9.154;2023-09-19T16:11:14;20.90;98.80
25342;DHT22;13298;48.792;9.154;2023-09-19T16:13:41;20.90;99.00
25342;DHT22;13298;48.792;9.154;2023-09-19T16:16:08;20.90;98.50
25342;DHT22;13298;48.792;9.154;2023-09-19T16:18:38;20.90;98.90
25342;DHT22;13298;48.792;9.154;2023-09-19T16:21:05;20.90;98.70
25342;DHT22;13298;48.792;9.154;2023-09-19T16:23:34;20.80;98.60
25342;DHT22;13298;48.792;9.154;2023-09-19T16:26:06;20.70;99.00
25342;DHT22;13298;48.792;9.154;2023-09-19T16:28:35;20.70;99.20
25342;DHT22;13298;48.792;9.154;2023-09-19T16:31:01;20.70;99.50
25342;DHT22;13298;48.792;9.154;2023-09-19T16:33:29;20.60;99.80
25342;DHT22;13298;48.792;9.154;2023-09-19T16:35:54;20.60;99.90